sensor_id;sensor_type;location;lat;lon;timestamp;pressure;altitude;pressure_sealevel;temperature;humidity
53316;BME280;39204;53.896;11.432;2023-04-20T05:16:59;102127.28;;;5.44;100.00
53316;BME280;39204;53.896;11.432;2023-04-20T05:18:30;102113.56;;;5.55;100.00
53316;BME280;39204;53.896;11.432;2023-04-20T05:20:00;102131.31;;;5.63;100.00
53316;BME280;39204;53.896;11.432;2023-04-20T05:21:31;102127.88;;;5.54;100.00
53316;BME280;39204;53.896;11.432;2023-04-20T05:23:01;102136.56;;;5.48;100.00
53316;BME280;39204;53.896;11.432;2023-04-20T05:24:32;102132.09;;;5.49;100.00
53316;BME280;39204;53.896;11.432;2023-04-20T05:26:02;102132.66;;;5.59;100.00
53316;BME280;39204;53.896;11.432;2023-04-20T05:27:32;102132.09;;;5.49;100.00
53316;BME280;39204;53.896;11.432;2023-04-20T05:29:03;102130.34;;;5.56;100.00
53316;BME280;39204;53.896;11.432;2023-04-20T05:30:33;102134.84;;;5.55;100.00
53316;BME280;39204;53.896;11.432;2023-04-20T05:32:03;102135.69;;;5.56;100.00
53316;BME280;39204;53.896;11.432;2023-04-20T05:33:34;102141.31;;;5.61;100.00
53316;BME280;39204;53.896;11.432;2023-04-20T05:35:05;102136.13;;;5.68;100.00
53316;BME280;39204;53.896;11.432;2023-04-20T05:36:35;102144.31;;;5.58;100.00
53316;BME280;39204;53.896;11.432;2023-04-20T05:38:06;102136.88;;;5.53;100.00
53316;BME280;39204;53.896;11.432;2023-04-20T05:39:36;102137.47;;;5.64;100.00
53316;BME280;39204;53.896;11.432;2023-04-20T05:41:06;102142.31;;;5.60;100.00
53316;BME280;39204;53.896;11.432;2023-04-20T05:42:37;102144.50;;;5.56;100.00
53316;BME280;39204;53.896;11.432;2023-04-20T05:44:07;102153.00;;;5.52;100.00
53316;BME280;39204;53.896;11.432;2023-04-20T05:45:37;102154.06;;;5.66;100.00
53316;BME280;39204;53.896;11.432;2023-04-20T05:47:08;102156.09;;;5.64;100.00
53316;BME280;39204;53.896;11.432;2023-04-20T05:48:38;102160.34;;;5.73;100.00
53316;BME280;39204;53.896;11.432;2023-04-20T05:50:09;102160.34;;;5.73;100.00
53316;BME280;39204;53.896;11.432;2023-04-20T05:51:39;102168.50;;;5.71;100.00
53316;BME280;39204;53.896;11.432;2023-04-20T05:53:09;102161.34;;;5.72;100.00
53316;BME280;39204;53.896;11.432;2023-04-20T05:54:39;102161.03;;;5.67;100.00
53316;BME280;39204;53.896;11.432;2023-04-20T05:56:10;102156.84;;;5.72;100.00
53316;BME280;39204;53.896;11.432;2023-04-20T05:57:40;102150.25;;;5.68;100.00
53316;BME280;39204;53.896;11.432;2023-04-20T05:59:14;102154.34;;;5.71;100.00
53316;BME280;39204;53.896;11.432;2023-04-20T06:00:45;102162.00;;;5.74;100.00
53316;BME280;39204;53.896;11.432;2023-04-20T06:02:15;102164.84;;;5.72;100.00
53316;BME280;39204;53.896;11.432;2023-04-20T06:03:46;102166.50;;;5.73;100.00
53316;BME280;39204;53.896;11.432;2023-04-20T06:05:18;102164.72;;;5.66;100.00
53316;BME280;39204;53.896;11.432;2023-04-20T06:06:48;102158.38;;;5.67;100.00
53316;BME280;39204;53.896;11.432;2023-04-20T06:08:20;102159.19;;;5.67;100.00
53316;BME280;39204;53.896;11.432;2023-04-20T06:09:50;102155.72;;;5.67;100.00
53316;BME280;39204;53.896;11.432;2023-04-20T06:11:20;102163.06;;;5.65;100.00
53316;BME280;39204;53.896;11.432;2023-04-20T06:12:51;102159.94;;;5.61;100.00
53316;BME280;39204;53.896;11.432;2023-04-20T06:14:21;102158.50;;;5.73;100.00
53316;BME280;39204;53.896;11.432;2023-04-20T06:15:51;102159.03;;;5.69;100.00
53316;BME280;39204;53.896;11.432;2023-04-20T06:17:22;102163.34;;;5.70;100.00
53316;BME280;39204;53.896;11.432;2023-04-20T06:18:53;102152.91;;;5.68;100.00
53316;BME280;39204;53.896;11.432;2023-04-20T06:20:23;102150.59;;;5.65;100.00
53316;BME280;39204;53.896;11.432;2023-04-20T06:21:53;102157.28;;;5.61;100.00
53316;BME280;39204;53.896;11.432;2023-04-20T06:23:24;102144.91;;;5.68;100.00
53316;BME280;39204;53.896;11.432;2023-04-20T06:24:54;102148.63;;;5.59;100.00
53316;BME280;39204;53.896;11.432;2023-04-20T06:26:25;102158.22;;;5.68;100.00
53316;BME280;39204;53.896;11.432;2023-04-20T06:27:55;102161.22;;;5.65;100.00
53316;BME280;39204;53.896;11.432;2023-04-20T06:29:25;102164.72;;;5.66;100.00
53316;BME280;39204;53.896;11.432;2023-04-20T06:30:56;102165.66;;;5.73;100.00
53316;BME280;39204;53.896;11.432;2023-04-20T06:32:26;102167.19;;;5.67;100.00
53316;BME280;39204;53.896;11.432;2023-04-20T06:33:56;102163.06;;;5.65;100.00
53316;BME280;39204;53.896;11.432;2023-04-20T06:35:26;102164.03;;;5.72;100.00
53316;BME280;39204;53.896;11.432;2023-04-20T06:36:57;102155.44;;;11.07;100.00
53316;BME280;39204;53.896;11.432;2023-04-20T06:38:27;102145.00;;;10.85;100.00
53316;BME280;39204;53.896;11.432;2023-04-20T06:39:58;102142.97;;;10.81;100.00
53316;BME280;39204;53.896;11.432;2023-04-20T06:41:28;102141.34;;;10.80;100.00
53316;BME280;39204;53.896;11.432;2023-04-20T06:42:58;102140.38;;;11.12;100.00
53316;BME280;39204;53.896;11.432;2023-04-20T06:44:29;102137.84;;;11.18;100.00
53316;BME280;39204;53.896;11.432;2023-04-20T06:45:59;102137.44;;;10.69;100.00
53316;BME280;39204;53.896;11.432;2023-04-20T06:47:29;102133.56;;;10.58;100.00
53316;BME280;39204;53.896;11.432;2023-04-20T06:49:03;102141.78;;;11.15;100.00
53316;BME280;39204;53.896;11.432;2023-04-20T06:50:33;102138.63;;;10.86;100.00
53316;BME280;39204;53.896;11.432;2023-04-20T06:52:04;102132.41;;;10.86;100.00
53316;BME280;39204;53.896;11.432;2023-04-20T06:53:34;102137.38;;;10.89;100.00
53316;BME280;39204;53.896;11.432;2023-04-20T06:55:05;102139.09;;;11.15;100.00
53316;BME280;39204;53.896;11.432;2023-04-20T06:56:36;102133.56;;;10.58;100.00
53316;BME280;39204;53.896;11.432;2023-04-20T06:58:06;102137.97;;;10.98;100.00
53316;BME280;39204;53.896;11.432;2023-04-20T06:59:36;102138.16;;;11.34;100.00
53316;BME280;39204;53.896;11.432;2023-04-20T07:01:07;102146.22;;;11.34;100.00
53316;BME280;39204;53.896;11.432;2023-04-20T07:02:41;102143.72;;;10.30;100.00
53316;BME280;39204;53.896;11.432;2023-04-20T07:04:12;102144.31;;;10.12;100.00
53316;BME280;39204;53.896;11.432;2023-04-20T07:05:42;102148.09;;;10.89;100.00
53316;BME280;39204;53.896;11.432;2023-04-20T07:07:12;102143.22;;;11.18;100.00
53316;BME280;39204;53.896;11.432;2023-04-20T07:08:43;102146.66;;;11.31;100.00
53316;BME280;39204;53.896;11.432;2023-04-20T07:10:14;102153.81;;;10.41;100.00
53316;BME280;39204;53.896;11.432;2023-04-20T07:11:44;102148.13;;;10.82;100.00
53316;BME280;39204;53.896;11.432;2023-04-20T07:13:15;102162.16;;;10.84;100.00
53316;BME280;39204;53.896;11.432;2023-04-20T07:14:45;102158.56;;;11.04;100.00
53316;BME280;39204;53.896;11.432;2023-04-20T07:16:16;102155.59;;;11.19;100.00
53316;BME280;39204;53.896;11.432;2023-04-20T07:17:46;102164.53;;;10.48;100.00
53316;BME280;39204;53.896;11.432;2023-04-20T07:19:16;102158.03;;;10.82;100.00
53316;BME280;39204;53.896;11.432;2023-04-20T07:20:46;102161.88;;;10.99;100.00
53316;BME280;39204;53.896;11.432;2023-04-20T07:22:17;102159.84;;;11.39;100.00
53316;BME280;39204;53.896;11.432;2023-04-20T07:23:47;102153.81;;;11.44;100.00
53316;BME280;39204;53.896;11.432;2023-04-20T07:25:17;102157.81;;;11.35;100.00
53316;BME280;39204;53.896;11.432;2023-04-20T07:26:47;102160.09;;;11.31;100.00
53316;BME280;39204;53.896;11.432;2023-04-20T07:28:18;102156.69;;;11.04;100.00
53316;BME280;39204;53.896;11.432;2023-04-20T07:29:48;102169.72;;;11.01;100.00
53316;BME280;39204;53.896;11.432;2023-04-20T07:31:18;102169.28;;;11.10;100.00
53316;BME280;39204;53.896;11.432;2023-04-20T07:32:49;102167.88;;;11.39;100.00
53316;BME280;39204;53.896;11.432;2023-04-20T07:34:19;102175.03;;;9.89;100.00
53316;BME280;39204;53.896;11.432;2023-04-20T07:35:50;102172.53;;;11.19;100.00
53316;BME280;39204;53.896;11.432;2023-04-20T07:37:20;102175.84;;;11.21;100.00
53316;BME280;39204;53.896;11.432;2023-04-20T07:38:50;102175.66;;;10.51;100.00
53316;BME280;39204;53.896;11.432;2023-04-20T07:40:20;102161.31;;;11.35;100.00
53316;BME280;39204;53.896;11.432;2023-04-20T07:41:51;102169.50;;;11.47;100.00
53316;BME280;39204;53.896;11.432;2023-04-20T07:43:21;102173.63;;;11.50;100.00
53316;BME280;39204;53.896;11.432;2023-04-20T07:44:53;102171.72;;;11.12;100.00
53316;BME280;39204;53.896;11.432;2023-04-20T07:46:23;102165.63;;;11.36;100.00
53316;BME280;39204;53.896;11.432;2023-04-20T07:47:53;102176.03;;;11.58;100.00
53316;BME280;39204;53.896;11.432;2023-04-20T07:49:26;102174.72;;;11.35;100.00
53316;BME280;39204;53.896;11.432;2023-04-20T07:50:56;102186.28;;;10.91;100.00
53316;BME280;39204;53.896;11.432;2023-04-20T07:52:26;102182.44;;;11.19;100.00
53316;BME280;39204;53.896;11.432;2023-04-20T07:53:57;102186.13;;;11.62;100.00
53316;BME280;39204;53.896;11.432;2023-04-20T07:55:27;102186.69;;;11.71;100.00
53316;BME280;39204;53.896;11.432;2023-04-20T07:56:58;102182.81;;;11.99;100.00
53316;BME280;39204;53.896;11.432;2023-04-20T07:58:28;102195.91;;;11.50;100.00
53316;BME280;39204;53.896;11.432;2023-04-20T07:59:58;102192.66;;;11.73;100.00
53316;BME280;39204;53.896;11.432;2023-04-20T08:01:28;102194.53;;;12.04;100.00
53316;BME280;39204;53.896;11.432;2023-04-20T08:03:00;102201.81;;;11.97;100.00
53316;BME280;39204;53.896;11.432;2023-04-20T08:04:30;102198.31;;;12.47;100.00
53316;BME280;39204;53.896;11.432;2023-04-20T08:06:01;102197.53;;;12.40;100.00
53316;BME280;39204;53.896;11.432;2023-04-20T08:07:31;102202.50;;;11.16;100.00
53316;BME280;39204;53.896;11.432;2023-04-20T08:09:01;102201.50;;;10.97;100.00
53316;BME280;39204;53.896;11.432;2023-04-20T08:10:32;102196.63;;;10.74;100.00
53316;BME280;39204;53.896;11.432;2023-04-20T08:12:03;102200.13;;;11.39;100.00
53316;BME280;39204;53.896;11.432;2023-04-20T08:13:34;102210.72;;;11.21;100.00
53316;BME280;39204;53.896;11.432;2023-04-20T08:15:06;102201.59;;;11.29;100.00
53316;BME280;39204;53.896;11.432;2023-04-20T08:16:37;102202.50;;;11.54;100.00
53316;BME280;39204;53.896;11.432;2023-04-20T08:18:07;102202.56;;;11.41;100.00
53316;BME280;39204;53.896;11.432;2023-04-20T08:19:38;102197.78;;;11.88;100.00
53316;BME280;39204;53.896;11.432;2023-04-20T08:21:08;102207.00;;;12.24;100.00
53316;BME280;39204;53.896;11.432;2023-04-20T08:22:38;102194.56;;;12.48;100.00
53316;BME280;39204;53.896;11.432;2023-04-20T08:25:40;102215.44;;;10.14;100.00
53316;BME280;39204;53.896;11.432;2023-04-20T08:27:12;102215.84;;;11.68;100.00
53316;BME280;39204;53.896;11.432;2023-04-20T08:28:42;102214.84;;;12.50;100.00
53316;BME280;39204;53.896;11.432;2023-04-20T08:30:13;102209.75;;;12.42;100.00
53316;BME280;39204;53.896;11.432;2023-04-20T08:31:44;102203.19;;;12.75;100.00
53316;BME280;39204;53.896;11.432;2023-04-20T08:33:14;102214.25;;;12.85;100.00
53316;BME280;39204;53.896;11.432;2023-04-20T08:34:44;102211.53;;;13.40;100.00
53316;BME280;39204;53.896;11.432;2023-04-20T08:36:15;102211.31;;;12.50;100.00
53316;BME280;39204;53.896;11.432;2023-04-20T08:37:45;102209.41;;;12.07;100.00
53316;BME280;39204;53.896;11.432;2023-04-20T08:39:20;102207.00;;;12.24;100.00
53316;BME280;39204;53.896;11.432;2023-04-20T08:43:50;102212.13;;;9.86;100.00
53316;BME280;39204;53.896;11.432;2023-04-20T08:45:20;102224.72;;;9.17;100.00
53316;BME280;39204;53.896;11.432;2023-04-20T08:46:52;102218.25;;;9.53;100.00
53316;BME280;39204;53.896;11.432;2023-04-20T08:48:24;102218.81;;;9.35;100.00
53316;BME280;39204;53.896;11.432;2023-04-20T08:49:55;102225.03;;;8.94;100.00
53316;BME280;39204;53.896;11.432;2023-04-20T08:51:27;102216.84;;;9.09;100.00
53316;BME280;39204;53.896;11.432;2023-04-20T08:52:58;102214.47;;;9.34;100.00
53316;BME280;39204;53.896;11.432;2023-04-20T08:54:28;102204.09;;;9.11;100.00
53316;BME280;39204;53.896;11.432;2023-04-20T08:55:58;102206.22;;;9.29;100.00
53316;BME280;39204;53.896;11.432;2023-04-20T08:57:29;102198.53;;;9.06;100.00
53316;BME280;39204;53.896;11.432;2023-04-20T08:59:00;102200.44;;;9.26;100.00
53316;BME280;39204;53.896;11.432;2023-04-20T09:00:32;102206.72;;;9.59;100.00
53316;BME280;39204;53.896;11.432;2023-04-20T09:02:10;102201.00;;;9.69;100.00
53316;BME280;39204;53.896;11.432;2023-04-20T09:03:41;102202.22;;;9.73;100.00
53316;BME280;39204;53.896;11.432;2023-04-20T09:05:11;102196.69;;;10.34;100.00
53316;BME280;39204;53.896;11.432;2023-04-20T09:06:44;102202.28;;;10.33;100.00
53316;BME280;39204;53.896;11.432;2023-04-20T09:08:14;102201.66;;;10.24;100.00
53316;BME280;39204;53.896;11.432;2023-04-20T09:09:55;102199.38;;;10.41;100.00
53316;BME280;39204;53.896;11.432;2023-04-20T09:11:26;102205.16;;;10.38;100.00
53316;BME280;39204;53.896;11.432;2023-04-20T09:13:03;102192.53;;;10.72;100.00
53316;BME280;39204;53.896;11.432;2023-04-20T09:14:43;102198.34;;;10.49;100.00
53316;BME280;39204;53.896;11.432;2023-04-20T09:16:13;102199.59;;;10.39;100.00
53316;BME280;39204;53.896;11.432;2023-04-20T09:17:44;102208.25;;;10.55;100.00
53316;BME280;39204;53.896;11.432;2023-04-20T09:19:14;102212.50;;;10.89;100.00
53316;BME280;39204;53.896;11.432;2023-04-20T09:20:44;102209.41;;;10.79;100.00
53316;BME280;39204;53.896;11.432;2023-04-20T09:22:15;102204.16;;;11.10;100.00
53316;BME280;39204;53.896;11.432;2023-04-20T09:23:58;102203.75;;;11.13;100.00
53316;BME280;39204;53.896;11.432;2023-04-20T09:25:31;102209.84;;;11.34;100.00
53316;BME280;39204;53.896;11.432;2023-04-20T09:27:15;102205.91;;;10.78;100.00
53316;BME280;39204;53.896;11.432;2023-04-20T09:28:45;102212.22;;;11.10;100.00
53316;BME280;39204;53.896;11.432;2023-04-20T09:30:16;102212.13;;;11.30;100.00
53316;BME280;39204;53.896;11.432;2023-04-20T09:31:47;102212.03;;;11.05;100.00
53316;BME280;39204;53.896;11.432;2023-04-20T09:33:18;102220.28;;;11.10;100.00
53316;BME280;39204;53.896;11.432;2023-04-20T09:34:48;102217.00;;;11.02;100.00
53316;BME280;39204;53.896;11.432;2023-04-20T09:36:19;102222.00;;;11.36;100.00
53316;BME280;39204;53.896;11.432;2023-04-20T09:37:50;102226.47;;;11.11;100.00
53316;BME280;39204;53.896;11.432;2023-04-20T09:39:24;102210.59;;;11.03;100.00
53316;BME280;39204;53.896;11.432;2023-04-20T09:40:57;102210.38;;;11.49;100.00
53316;BME280;39204;53.896;11.432;2023-04-20T09:42:31;102209.06;;;11.65;100.00
53316;BME280;39204;53.896;11.432;2023-04-20T09:44:04;102215.94;;;11.54;100.00
53316;BME280;39204;53.896;11.432;2023-04-20T09:45:37;102214.19;;;11.35;100.00
53316;BME280;39204;53.896;11.432;2023-04-20T09:47:08;102221.88;;;11.63;100.00
53316;BME280;39204;53.896;11.432;2023-04-20T09:48:38;102213.47;;;12.59;100.00
53316;BME280;39204;53.896;11.432;2023-04-20T09:50:09;102206.09;;;12.55;100.00
53316;BME280;39204;53.896;11.432;2023-04-20T09:51:42;102208.69;;;12.18;100.00
53316;BME280;39204;53.896;11.432;2023-04-20T09:53:16;102206.81;;;12.19;100.00
53316;BME280;39204;53.896;11.432;2023-04-20T09:54:47;102200.97;;;12.03;100.00
53316;BME280;39204;53.896;11.432;2023-04-20T09:56:18;102203.22;;;12.31;100.00
53316;BME280;39204;53.896;11.432;2023-04-20T09:57:50;102204.38;;;12.17;100.00
53316;BME280;39204;53.896;11.432;2023-04-20T09:59:21;102182.31;;;11.83;100.00
53316;BME280;39204;53.896;11.432;2023-04-20T10:00:52;102185.59;;;12.10;100.00
53316;BME280;39204;53.896;11.432;2023-04-20T10:02:23;102182.56;;;12.00;100.00
53316;BME280;39204;53.896;11.432;2023-04-20T10:03:53;102182.09;;;11.47;100.00
53316;BME280;39204;53.896;11.432;2023-04-20T10:05:34;102182.44;;;12.20;100.00
53316;BME280;39204;53.896;11.432;2023-04-20T10:07:05;102188.38;;;12.84;100.00
53316;BME280;39204;53.896;11.432;2023-04-20T10:08:40;102183.97;;;12.09;100.00
53316;BME280;39204;53.896;11.432;2023-04-20T10:10:14;102183.16;;;12.09;100.00
53316;BME280;39204;53.896;11.432;2023-04-20T10:11:45;102183.44;;;12.99;100.00
53316;BME280;39204;53.896;11.432;2023-04-20T10:13:15;102183.22;;;13.49;100.00
53316;BME280;39204;53.896;11.432;2023-04-20T10:14:54;102186.84;;;13.43;100.00
53316;BME280;39204;53.896;11.432;2023-04-20T10:16:26;102190.28;;;13.50;100.00
53316;BME280;39204;53.896;11.432;2023-04-20T10:17:56;102172.91;;;13.46;100.00
53316;BME280;39204;53.896;11.432;2023-04-20T10:19:47;102185.91;;;13.49;100.00
53316;BME280;39204;53.896;11.432;2023-04-20T10:21:17;102184.97;;;13.44;100.00
53316;BME280;39204;53.896;11.432;2023-04-20T10:22:49;102194.88;;;13.31;100.00
53316;BME280;39204;53.896;11.432;2023-04-20T10:24:29;102182.16;;;13.39;100.00
53316;BME280;39204;53.896;11.432;2023-04-20T10:26:00;102190.09;;;13.75;100.00
53316;BME280;39204;53.896;11.432;2023-04-20T10:27:32;102178.81;;;14.20;100.00
53316;BME280;39204;53.896;11.432;2023-04-20T10:29:03;102181.72;;;14.19;100.00
53316;BME280;39204;53.896;11.432;2023-04-20T10:30:34;102191.75;;;13.76;100.00
53316;BME280;39204;53.896;11.432;2023-04-20T10:32:05;102182.22;;;13.14;100.00
53316;BME280;39204;53.896;11.432;2023-04-20T10:33:35;102189.13;;;12.91;100.00
53316;BME280;39204;53.896;11.432;2023-04-20T10:35:08;102187.47;;;12.72;100.00
53316;BME280;39204;53.896;11.432;2023-04-20T10:36:38;102185.03;;;12.70;100.00
53316;BME280;39204;53.896;11.432;2023-04-20T10:38:10;102172.75;;;12.93;100.00
53316;BME280;39204;53.896;11.432;2023-04-20T10:39:45;102180.31;;;13.02;100.00
53316;BME280;39204;53.896;11.432;2023-04-20T10:41:15;102176.50;;;13.70;100.00
53316;BME280;39204;53.896;11.432;2023-04-20T10:42:45;102170.97;;;13.65;100.00
53316;BME280;39204;53.896;11.432;2023-04-20T10:44:16;102167.88;;;14.03;100.00
53316;BME280;39204;53.896;11.432;2023-04-20T10:45:47;102164.72;;;14.18;100.00
53316;BME280;39204;53.896;11.432;2023-04-20T10:47:30;102163.94;;;13.64;100.00
53316;BME280;39204;53.896;11.432;2023-04-20T10:49:01;102163.03;;;13.94;100.00
53316;BME280;39204;53.896;11.432;2023-04-20T10:50:31;102164.72;;;14.07;100.00
53316;BME280;39204;53.896;11.432;2023-04-20T10:52:02;102171.28;;;14.11;100.00
53316;BME280;39204;53.896;11.432;2023-04-20T10:53:32;102165.78;;;14.06;100.00
53316;BME280;39204;53.896;11.432;2023-04-20T10:55:03;102161.56;;;13.98;100.00
53316;BME280;39204;53.896;11.432;2023-04-20T10:56:42;102164.25;;;13.98;100.00
53316;BME280;39204;53.896;11.432;2023-04-20T10:58:20;102171.53;;;14.09;100.00
53316;BME280;39204;53.896;11.432;2023-04-20T10:59:51;102166.44;;;13.77;100.00
53316;BME280;39204;53.896;11.432;2023-04-20T11:01:21;102159.22;;;14.13;100.00
53316;BME280;39204;53.896;11.432;2023-04-20T11:02:56;102159.91;;;14.44;100.00
53316;BME280;39204;53.896;11.432;2023-04-20T11:04:30;102155.56;;;14.43;100.00
53316;BME280;39204;53.896;11.432;2023-04-20T11:06:01;102148.88;;;14.69;100.00
53316;BME280;39204;53.896;11.432;2023-04-20T11:07:32;102156.00;;;14.75;100.00
53316;BME280;39204;53.896;11.432;2023-04-20T11:09:03;102150.75;;;14.33;100.00
53316;BME280;39204;53.896;11.432;2023-04-20T11:10:41;102148.75;;;14.64;100.00
53316;BME280;39204;53.896;11.432;2023-04-20T11:12:11;102150.06;;;14.49;100.00
53316;BME280;39204;53.896;11.432;2023-04-20T11:13:43;102145.66;;;14.84;100.00
53316;BME280;39204;53.896;11.432;2023-04-20T11:15:14;102142.44;;;14.98;100.00
53316;BME280;39204;53.896;11.432;2023-04-20T11:16:51;102151.78;;;14.67;100.00
53316;BME280;39204;53.896;11.432;2023-04-20T11:18:21;102142.31;;;14.65;100.00
53316;BME280;39204;53.896;11.432;2023-04-20T11:21:41;102144.28;;;14.69;100.00
53316;BME280;39204;53.896;11.432;2023-04-20T11:23:11;102146.00;;;14.87;100.00
53316;BME280;39204;53.896;11.432;2023-04-20T11:24:42;102145.66;;;15.12;100.00
53316;BME280;39204;53.896;11.432;2023-04-20T11:26:13;102139.16;;;14.96;100.00
53316;BME280;39204;53.896;11.432;2023-04-20T11:27:44;102138.81;;;14.93;100.00
53316;BME280;39204;53.896;11.432;2023-04-20T11:29:39;102138.47;;;14.89;100.00
53316;BME280;39204;53.896;11.432;2023-04-20T11:31:16;102141.13;;;15.30;100.00
53316;BME280;39204;53.896;11.432;2023-04-20T11:32:53;102137.00;;;15.39;100.00
53316;BME280;39204;53.896;11.432;2023-04-20T11:34:23;102128.84;;;15.22;100.00
53316;BME280;39204;53.896;11.432;2023-04-20T11:35:55;102136.81;;;15.45;100.00
53316;BME280;39204;53.896;11.432;2023-04-20T11:37:26;102128.88;;;15.56;100.00
53316;BME280;39204;53.896;11.432;2023-04-20T11:39:06;102128.72;;;15.62;100.00
53316;BME280;39204;53.896;11.432;2023-04-20T11:40:38;102127.94;;;15.95;100.00
53316;BME280;39204;53.896;11.432;2023-04-20T11:42:08;102130.16;;;15.82;100.00
53316;BME280;39204;53.896;11.432;2023-04-20T11:43:38;102130.22;;;15.87;100.00
53316;BME280;39204;53.896;11.432;2023-04-20T11:45:09;102125.31;;;16.01;100.00
53316;BME280;39204;53.896;11.432;2023-04-20T11:46:40;102127.94;;;15.95;100.00
53316;BME280;39204;53.896;11.432;2023-04-20T11:48:13;102133.25;;;15.90;100.00
53316;BME280;39204;53.896;11.432;2023-04-20T11:49:43;102140.66;;;15.33;100.00
53316;BME280;39204;53.896;11.432;2023-04-20T11:51:13;102135.03;;;15.51;100.00
53316;BME280;39204;53.896;11.432;2023-04-20T11:52:44;102131.25;;;15.35;100.00
53316;BME280;39204;53.896;11.432;2023-04-20T11:54:14;102142.41;;;15.10;100.00
53316;BME280;39204;53.896;11.432;2023-04-20T11:55:44;102135.41;;;15.26;100.00
53316;BME280;39204;53.896;11.432;2023-04-20T11:57:14;102128.75;;;15.17;100.00
53316;BME280;39204;53.896;11.432;2023-04-20T11:58:45;102128.09;;;15.27;100.00
53316;BME280;39204;53.896;11.432;2023-04-20T12:00:16;102118.94;;;15.28;100.00
53316;BME280;39204;53.896;11.432;2023-04-20T12:01:47;102120.03;;;15.43;100.00
53316;BME280;39204;53.896;11.432;2023-04-20T12:03:17;102123.91;;;14.90;100.00
53316;BME280;39204;53.896;11.432;2023-04-20T12:04:47;102127.28;;;15.26;100.00
53316;BME280;39204;53.896;11.432;2023-04-20T12:06:18;102124.72;;;14.50;100.00
53316;BME280;39204;53.896;11.432;2023-04-20T12:07:48;102123.41;;;14.65;100.00
53316;BME280;39204;53.896;11.432;2023-04-20T12:09:18;102127.97;;;14.76;100.00
53316;BME280;39204;53.896;11.432;2023-04-20T12:10:48;102125.75;;;14.49;100.00
53316;BME280;39204;53.896;11.432;2023-04-20T12:12:19;102125.31;;;14.93;100.00
53316;BME280;39204;53.896;11.432;2023-04-20T12:13:50;102128.75;;;15.17;100.00
53316;BME280;39204;53.896;11.432;2023-04-20T12:15:21;102123.53;;;14.98;100.00
53316;BME280;39204;53.896;11.432;2023-04-20T12:16:51;102133.13;;;15.06;100.00
53316;BME280;39204;53.896;11.432;2023-04-20T12:18:21;102119.28;;;15.03;100.00
53316;BME280;39204;53.896;11.432;2023-04-20T12:19:52;102123.50;;;15.10;100.00
53316;BME280;39204;53.896;11.432;2023-04-20T12:21:22;102107.88;;;15.29;100.00
53316;BME280;39204;53.896;11.432;2023-04-20T12:22:52;102125.13;;;15.11;100.00
53316;BME280;39204;53.896;11.432;2023-04-20T12:24:23;102105.03;;;14.79;100.00
53316;BME280;39204;53.896;11.432;2023-04-20T12:25:53;102118.34;;;14.68;100.00
53316;BME280;39204;53.896;11.432;2023-04-20T12:27:23;102113.28;;;14.72;100.00
53316;BME280;39204;53.896;11.432;2023-04-20T12:28:56;102109.50;;;15.13;100.00
53316;BME280;39204;53.896;11.432;2023-04-20T12:30:26;102109.84;;;15.34;100.00
53316;BME280;39204;53.896;11.432;2023-04-20T12:31:56;102116.47;;;15.71;100.00
53316;BME280;39204;53.896;11.432;2023-04-20T12:33:27;102108.75;;;15.46;100.00
53316;BME280;39204;53.896;11.432;2023-04-20T12:34:57;102110.00;;;15.27;100.00
53316;BME280;39204;53.896;11.432;2023-04-20T12:36:28;102111.06;;;14.45;100.00
53316;BME280;39204;53.896;11.432;2023-04-20T12:37:58;102116.47;;;13.51;100.00
53316;BME280;39204;53.896;11.432;2023-04-20T12:39:29;102098.13;;;13.95;100.00
53316;BME280;39204;53.896;11.432;2023-04-20T12:40:59;102103.72;;;13.82;100.00
53316;BME280;39204;53.896;11.432;2023-04-20T12:42:29;102098.53;;;14.27;100.00
53316;BME280;39204;53.896;11.432;2023-04-20T12:44:00;102098.66;;;14.56;100.00
53316;BME280;39204;53.896;11.432;2023-04-20T12:45:30;102100.06;;;14.47;100.00
53316;BME280;39204;53.896;11.432;2023-04-20T12:47:00;102104.69;;;13.88;100.00
53316;BME280;39204;53.896;11.432;2023-04-20T12:48:31;102092.84;;;14.24;100.00
53316;BME280;39204;53.896;11.432;2023-04-20T12:50:01;102097.97;;;14.25;100.00
53316;BME280;39204;53.896;11.432;2023-04-20T12:51:32;102099.03;;;13.66;100.00
53316;BME280;39204;53.896;11.432;2023-04-20T12:53:02;102094.66;;;13.53;100.00
53316;BME280;39204;53.896;11.432;2023-04-20T12:54:32;102095.44;;;13.30;100.00
53316;BME280;39204;53.896;11.432;2023-04-20T12:56:03;102088.50;;;13.76;100.00
53316;BME280;39204;53.896;11.432;2023-04-20T12:57:34;102079.94;;;13.91;100.00
53316;BME280;39204;53.896;11.432;2023-04-20T12:59:04;102084.50;;;13.90;100.00
53316;BME280;39204;53.896;11.432;2023-04-20T13:00:34;102081.88;;;14.31;100.00
53316;BME280;39204;53.896;11.432;2023-04-20T13:02:05;102079.78;;;14.33;100.00
53316;BME280;39204;53.896;11.432;2023-04-20T13:03:35;102081.88;;;14.31;100.00
53316;BME280;39204;53.896;11.432;2023-04-20T13:05:06;102077.56;;;14.29;100.00
53316;BME280;39204;53.896;11.432;2023-04-20T13:06:36;102077.53;;;14.53;100.00
53316;BME280;39204;53.896;11.432;2023-04-20T13:08:06;102069.44;;;14.65;100.00
53316;BME280;39204;53.896;11.432;2023-04-20T13:09:37;102075.63;;;15.22;100.00